sensor_id;sensor_type;location;lat;lon;timestamp;pressure;altitude;pressure_sealevel;temperature;humidity
32452;BME280;45528;52.102;5.242;2022-12-05T00:03:07;101462.0;;;9.6;59.24
32452;BME280;45528;52.102;5.242;2022-12-05T00:04:43;101466.0;;;9.6;59.02
32452;BME280;45528;52.102;5.242;2022-12-05T00:06:21;101464.0;;;9.31;60.02
32452;BME280;45528;52.102;5.242;2022-12-05T00:09:34;101464.0;;;9.61;59.4
32452;BME280;45528;52.102;5.242;2022-12-05T00:11:12;101468.0;;;9.69;59.11
32452;BME280;45528;52.102;5.242;2022-12-05T00:12:48;101466.0;;;9.6;59.35
32452;BME280;45528;52.102;5.242;2022-12-05T00:14:25;101462.0;;;9.83;58.54
32452;BME280;45528;52.102;5.242;2022-12-05T00:17:41;101464.0;;;9.8;58.73
32452;BME280;45528;52.102;5.242;2022-12-05T00:19:17;101466.0;;;9.78;58.75
32452;BME280;45528;52.102;5.242;2022-12-05T00:20:53;101471.0;;;9.86;58.51
32452;BME280;45528;52.102;5.242;2022-12-05T00:24:09;101468.0;;;9.94;58.54
32452;BME280;45528;52.102;5.242;2022-12-05T00:25:47;101468.0;;;9.8;58.75
32452;BME280;45528;52.102;5.242;2022-12-05T00:27:23;101467.0;;;9.68;59.12
32452;BME280;45528;52.102;5.242;2022-12-05T00:28:59;101468.0;;;9.53;59.25
32452;BME280;45528;52.102;5.242;2022-12-05T00:32:14;101473.0;;;9.44;59.85
32452;BME280;45528;52.102;5.242;2022-12-05T00:33:52;101471.0;;;9.82;59.0
32452;BME280;45528;52.102;5.242;2022-12-05T00:35:29;101472.0;;;9.84;58.91
32452;BME280;45528;52.102;5.242;2022-12-05T00:38:42;101472.0;;;9.83;58.84
32452;BME280;45528;52.102;5.242;2022-12-05T00:40:18;101469.0;;;9.66;59.45
32452;BME280;45528;52.102;5.242;2022-12-05T00:41:54;101466.0;;;9.94;58.9
32452;BME280;45528;52.102;5.242;2022-12-05T00:45:09;101469.0;;;9.81;59.2
32452;BME280;45528;52.102;5.242;2022-12-05T00:46:45;101470.0;;;9.85;59.23
32452;BME280;45528;52.102;5.242;2022-12-05T00:48:21;101470.0;;;9.73;59.47
32452;BME280;45528;52.102;5.242;2022-12-05T00:49:57;101469.0;;;9.89;59.3
32452;BME280;45528;52.102;5.242;2022-12-05T00:53:13;101466.0;;;9.89;59.14
32452;BME280;45528;52.102;5.242;2022-12-05T00:54:49;101467.0;;;9.86;59.5
32452;BME280;45528;52.102;5.242;2022-12-05T00:56:26;101468.0;;;9.73;59.99
32452;BME280;45528;52.102;5.242;2022-12-05T00:59:39;101469.0;;;9.67;59.72
32452;BME280;45528;52.102;5.242;2022-12-05T01:01:18;101467.0;;;9.91;59.64
32452;BME280;45528;52.102;5.242;2022-12-05T01:02:57;101468.0;;;9.86;59.79
32452;BME280;45528;52.102;5.242;2022-12-05T01:04:33;101472.0;;;9.93;59.46
32452;BME280;45528;52.102;5.242;2022-12-05T01:07:48;101465.0;;;9.81;60.12
32452;BME280;45528;52.102;5.242;2022-12-05T01:09:25;101469.0;;;9.98;59.54
32452;BME280;45528;52.102;5.242;2022-12-05T01:11:03;101466.0;;;9.57;60.68
32452;BME280;45528;52.102;5.242;2022-12-05T01:14:19;101464.0;;;9.86;60.15
32452;BME280;45528;52.102;5.242;2022-12-05T01:15:56;101471.0;;;10.06;59.55
32452;BME280;45528;52.102;5.242;2022-12-05T01:17:34;101469.0;;;9.98;59.72
32452;BME280;45528;52.102;5.242;2022-12-05T01:19:13;101463.0;;;9.98;59.82
32452;BME280;45528;52.102;5.242;2022-12-05T01:22:29;101459.0;;;10.06;59.82
32452;BME280;45528;52.102;5.242;2022-12-05T01:24:06;101463.0;;;9.83;60.57
32452;BME280;45528;52.102;5.242;2022-12-05T01:25:44;101462.0;;;10.09;59.7
32452;BME280;45528;52.102;5.242;2022-12-05T01:29:01;101469.0;;;9.89;59.86
32452;BME280;45528;52.102;5.242;2022-12-05T01:30:40;101467.0;;;10.05;60.2
32452;BME280;45528;52.102;5.242;2022-12-05T01:32:18;101472.0;;;9.9;60.3
32452;BME280;45528;52.102;5.242;2022-12-05T01:33:57;101472.0;;;10.01;60.33
32452;BME280;45528;52.102;5.242;2022-12-05T01:37:13;101473.0;;;10.11;60.06
32452;BME280;45528;52.102;5.242;2022-12-05T01:38:50;101475.0;;;9.91;60.14
32452;BME280;45528;52.102;5.242;2022-12-05T01:40:27;101474.0;;;9.86;60.76
32452;BME280;45528;52.102;5.242;2022-12-05T01:43:59;101472.0;;;9.99;60.68
32452;BME280;45528;52.102;5.242;2022-12-05T01:45:39;101474.0;;;10.11;60.41
32452;BME280;45528;52.102;5.242;2022-12-05T01:47:17;101471.0;;;10.16;60.34
32452;BME280;45528;52.102;5.242;2022-12-05T01:48:57;101467.0;;;10.23;60.06
32452;BME280;45528;52.102;5.242;2022-12-05T01:50:36;101469.0;;;10.08;60.58
32452;BME280;45528;52.102;5.242;2022-12-05T01:53:55;101472.0;;;9.96;60.65
32452;BME280;45528;52.102;5.242;2022-12-05T01:55:33;101469.0;;;10.29;60.18
32452;BME280;45528;52.102;5.242;2022-12-05T01:57:12;101473.0;;;10.15;60.49
32452;BME280;45528;52.102;5.242;2022-12-05T02:00:28;101473.0;;;10.16;60.42
32452;BME280;45528;52.102;5.242;2022-12-05T02:02:06;101477.0;;;9.94;61.21
32452;BME280;45528;52.102;5.242;2022-12-05T02:03:43;101474.0;;;10.18;60.67
32452;BME280;45528;52.102;5.242;2022-12-05T02:05:24;101476.0;;;10.16;60.64
32452;BME280;45528;52.102;5.242;2022-12-05T02:08:40;101473.0;;;10.17;60.72
32452;BME280;45528;52.102;5.242;2022-12-05T02:10:17;101472.0;;;10.14;60.87
32452;BME280;45528;52.102;5.242;2022-12-05T02:11:57;101472.0;;;10.22;60.75
32452;BME280;45528;52.102;5.242;2022-12-05T02:13:46;101471.0;;;10.16;60.87
32452;BME280;45528;52.102;5.242;2022-12-05T02:17:22;101478.0;;;10.07;61.29
32452;BME280;45528;52.102;5.242;2022-12-05T02:19:30;101475.0;;;9.97;61.5
32452;BME280;45528;52.102;5.242;2022-12-05T02:21:43;101478.0;;;10.0;61.7
32452;BME280;45528;52.102;5.242;2022-12-05T02:23:57;101475.0;;;9.97;61.87
32452;BME280;45528;52.102;5.242;2022-12-05T02:29:57;101472.0;;;9.88;61.91
32452;BME280;45528;52.102;5.242;2022-12-05T02:31:44;101472.0;;;9.96;61.93
32452;BME280;45528;52.102;5.242;2022-12-05T02:33:33;101473.0;;;10.0;61.98
32452;BME280;45528;52.102;5.242;2022-12-05T02:35:18;101468.0;;;10.03;62.06
32452;BME280;45528;52.102;5.242;2022-12-05T02:37:02;101470.0;;;9.94;62.24
32452;BME280;45528;52.102;5.242;2022-12-05T02:38:50;101471.0;;;9.72;62.99
32452;BME280;45528;52.102;5.242;2022-12-05T02:42:23;101466.0;;;9.94;62.41
32452;BME280;45528;52.102;5.242;2022-12-05T02:44:05;101467.0;;;9.85;62.89
32452;BME280;45528;52.102;5.242;2022-12-05T02:45:47;101466.0;;;9.82;62.99
32452;BME280;45528;52.102;5.242;2022-12-05T02:47:30;101473.0;;;9.97;62.77
32452;BME280;45528;52.102;5.242;2022-12-05T02:49:10;101468.0;;;9.89;62.78
32452;BME280;45528;52.102;5.242;2022-12-05T02:52:29;101469.0;;;10.0;62.42
32452;BME280;45528;52.102;5.242;2022-12-05T02:54:10;101467.0;;;10.08;62.3
32452;BME280;45528;52.102;5.242;2022-12-05T02:55:50;101466.0;;;10.11;62.25
32452;BME280;45528;52.102;5.242;2022-12-05T02:59:04;101467.0;;;9.97;63.05
32452;BME280;45528;52.102;5.242;2022-12-05T03:00:43;101461.0;;;10.19;61.9
32452;BME280;45528;52.102;5.242;2022-12-05T03:02:23;101463.0;;;10.41;61.54
32452;BME280;45528;52.102;5.242;2022-12-05T03:04:03;101461.0;;;10.23;61.86
32452;BME280;45528;52.102;5.242;2022-12-05T03:07:28;101461.0;;;10.24;62.12
32452;BME280;45528;52.102;5.242;2022-12-05T03:09:09;101461.0;;;10.34;61.78
32452;BME280;45528;52.102;5.242;2022-12-05T03:10:48;101464.0;;;10.43;61.51
32452;BME280;45528;52.102;5.242;2022-12-05T03:12:32;101462.0;;;10.4;61.59
32452;BME280;45528;52.102;5.242;2022-12-05T03:15:54;101463.0;;;10.45;61.42
32452;BME280;45528;52.102;5.242;2022-12-05T03:17:39;101464.0;;;10.24;62.15
32452;BME280;45528;52.102;5.242;2022-12-05T03:19:23;101468.0;;;10.51;61.46
32452;BME280;45528;52.102;5.242;2022-12-05T03:21:06;101470.0;;;10.06;62.59
32452;BME280;45528;52.102;5.242;2022-12-05T03:22:50;101468.0;;;10.32;61.95
32452;BME280;45528;52.102;5.242;2022-12-05T03:26:17;101470.0;;;10.3;62.09
32452;BME280;45528;52.102;5.242;2022-12-05T03:28:11;101475.0;;;10.3;61.9
32452;BME280;45528;52.102;5.242;2022-12-05T03:29:55;101475.0;;;9.97;62.91
32452;BME280;45528;52.102;5.242;2022-12-05T03:31:40;101469.0;;;10.34;61.99
32452;BME280;45528;52.102;5.242;2022-12-05T03:33:22;101472.0;;;10.3;61.95
32452;BME280;45528;52.102;5.242;2022-12-05T03:36:48;101474.0;;;10.37;61.87
32452;BME280;45528;52.102;5.242;2022-12-05T03:38:32;101471.0;;;10.36;61.91
32452;BME280;45528;52.102;5.242;2022-12-05T03:40:16;101478.0;;;10.39;61.87
32452;BME280;45528;52.102;5.242;2022-12-05T03:42:02;101478.0;;;10.22;62.23
32452;BME280;45528;52.102;5.242;2022-12-05T03:43:48;101481.0;;;10.08;62.99
32452;BME280;45528;52.102;5.242;2022-12-05T03:47:18;101485.0;;;10.11;62.78
32452;BME280;45528;52.102;5.242;2022-12-05T03:49:03;101480.0;;;10.28;62.14
32452;BME280;45528;52.102;5.242;2022-12-05T03:50:46;101485.0;;;10.45;61.7
32452;BME280;45528;52.102;5.242;2022-12-05T03:52:28;101487.0;;;10.4;61.88
32452;BME280;45528;52.102;5.242;2022-12-05T03:54:13;101489.0;;;10.01;62.73
32452;BME280;45528;52.102;5.242;2022-12-05T03:57:40;101488.0;;;9.86;63.8
32452;BME280;45528;52.102;5.242;2022-12-05T03:59:24;101486.0;;;10.23;62.48
32452;BME280;45528;52.102;5.242;2022-12-05T04:01:08;101488.0;;;10.48;61.78
32452;BME280;45528;52.102;5.242;2022-12-05T04:02:51;101491.0;;;10.35;62.09
32452;BME280;45528;52.102;5.242;2022-12-05T04:04:33;101501.0;;;10.23;62.48
32452;BME280;45528;52.102;5.242;2022-12-05T04:08:00;101498.0;;;9.99;62.98
32452;BME280;45528;52.102;5.242;2022-12-05T04:09:43;101493.0;;;10.4;61.93
32452;BME280;45528;52.102;5.242;2022-12-05T04:11:24;101499.0;;;10.05;62.36
32452;BME280;45528;52.102;5.242;2022-12-05T04:13:19;101497.0;;;10.36;61.92
32452;BME280;45528;52.102;5.242;2022-12-05T04:15:06;101499.0;;;10.59;61.3
32452;BME280;45528;52.102;5.242;2022-12-05T04:19:08;101499.0;;;10.25;62.2
32452;BME280;45528;52.102;5.242;2022-12-05T04:21:54;101499.0;;;10.45;61.88
32452;BME280;45528;52.102;5.242;2022-12-05T04:23:31;101495.0;;;10.28;62.42
32452;BME280;45528;52.102;5.242;2022-12-05T04:27:48;101496.0;;;10.54;61.86
32452;BME280;45528;52.102;5.242;2022-12-05T04:29:44;101488.0;;;10.23;62.33
32452;BME280;45528;52.102;5.242;2022-12-05T04:33:13;101490.0;;;9.91;63.05
32452;BME280;45528;52.102;5.242;2022-12-05T04:34:57;101489.0;;;10.43;62.28
32452;BME280;45528;52.102;5.242;2022-12-05T04:36:40;101491.0;;;10.02;63.57
32452;BME280;45528;52.102;5.242;2022-12-05T04:38:23;101484.0;;;10.27;62.92
32452;BME280;45528;52.102;5.242;2022-12-05T04:40:06;101488.0;;;10.47;62.39
32452;BME280;45528;52.102;5.242;2022-12-05T04:43:31;101487.0;;;10.36;62.66
32452;BME280;45528;52.102;5.242;2022-12-05T04:45:17;101485.0;;;10.57;61.95
32452;BME280;45528;52.102;5.242;2022-12-05T04:46:59;101485.0;;;10.63;61.86
32452;BME280;45528;52.102;5.242;2022-12-05T04:48:39;101484.0;;;10.57;61.85
32452;BME280;45528;52.102;5.242;2022-12-05T04:52:00;101483.0;;;10.46;62.42
32452;BME280;45528;52.102;5.242;2022-12-05T04:53:40;101485.0;;;10.36;62.9
32452;BME280;45528;52.102;5.242;2022-12-05T04:55:22;101487.0;;;10.55;62.35
32452;BME280;45528;52.102;5.242;2022-12-05T04:57:01;101486.0;;;10.37;63.13
32452;BME280;45528;52.102;5.242;2022-12-05T05:00:21;101484.0;;;10.56;62.34
32452;BME280;45528;52.102;5.242;2022-12-05T05:02:03;101488.0;;;10.61;62.32
32452;BME280;45528;52.102;5.242;2022-12-05T05:03:43;101487.0;;;10.65;62.13
32452;BME280;45528;52.102;5.242;2022-12-05T05:05:24;101486.0;;;10.32;62.81
32452;BME280;45528;52.102;5.242;2022-12-05T05:08:46;101484.0;;;10.56;62.53
32452;BME280;45528;52.102;5.242;2022-12-05T05:10:29;101487.0;;;10.08;64.12
32452;BME280;45528;52.102;5.242;2022-12-05T05:12:09;101482.0;;;10.62;62.64
32452;BME280;45528;52.102;5.242;2022-12-05T05:13:46;101488.0;;;10.32;63.55
32452;BME280;45528;52.102;5.242;2022-12-05T05:16:59;101488.0;;;10.66;62.7
32452;BME280;45528;52.102;5.242;2022-12-05T05:18:35;101483.0;;;10.63;62.82
32452;BME280;45528;52.102;5.242;2022-12-05T05:20:27;101484.0;;;10.48;63.32
32452;BME280;45528;52.102;5.242;2022-12-05T05:22:03;101489.0;;;10.58;63.03
32452;BME280;45528;52.102;5.242;2022-12-05T05:25:17;101493.0;;;10.44;63.52
32452;BME280;45528;52.102;5.242;2022-12-05T05:26:53;101495.0;;;10.62;62.95
32452;BME280;45528;52.102;5.242;2022-12-05T05:28:29;101492.0;;;10.56;63.13
32452;BME280;45528;52.102;5.242;2022-12-05T05:31:43;101494.0;;;10.71;62.97
32452;BME280;45528;52.102;5.242;2022-12-05T05:33:20;101498.0;;;10.23;64.52
32452;BME280;45528;52.102;5.242;2022-12-05T05:34:56;101496.0;;;10.55;63.1
32452;BME280;45528;52.102;5.242;2022-12-05T05:36:33;101494.0;;;10.56;63.28
32452;BME280;45528;52.102;5.242;2022-12-05T05:39:46;101497.0;;;10.67;63.41
32452;BME280;45528;52.102;5.242;2022-12-05T05:41:23;101493.0;;;10.11;64.89
32452;BME280;45528;52.102;5.242;2022-12-05T05:43:00;101496.0;;;10.61;63.38
32452;BME280;45528;52.102;5.242;2022-12-05T05:46:13;101495.0;;;10.82;62.87
32452;BME280;45528;52.102;5.242;2022-12-05T05:47:52;101497.0;;;10.9;62.61
32452;BME280;45528;52.102;5.242;2022-12-05T05:49:29;101499.0;;;10.81;62.97
32452;BME280;45528;52.102;5.242;2022-12-05T05:52:44;101496.0;;;10.83;63.0
32452;BME280;45528;52.102;5.242;2022-12-05T05:54:20;101497.0;;;10.85;62.77
32452;BME280;45528;52.102;5.242;2022-12-05T05:56:00;101488.0;;;10.91;62.79
32452;BME280;45528;52.102;5.242;2022-12-05T05:57:37;101490.0;;;10.9;62.77
32452;BME280;45528;52.102;5.242;2022-12-05T06:00:49;101489.0;;;10.88;62.91
32452;BME280;45528;52.102;5.242;2022-12-05T06:02:30;101493.0;;;10.89;63.02
32452;BME280;45528;52.102;5.242;2022-12-05T06:04:07;101493.0;;;10.8;63.08
32452;BME280;45528;52.102;5.242;2022-12-05T06:07:19;101493.0;;;10.59;64.13
32452;BME280;45528;52.102;5.242;2022-12-05T06:08:56;101491.0;;;10.43;64.8
32452;BME280;45528;52.102;5.242;2022-12-05T06:10:31;101493.0;;;10.85;63.16
32452;BME280;45528;52.102;5.242;2022-12-05T06:12:08;101493.0;;;10.95;63.09
32452;BME280;45528;52.102;5.242;2022-12-05T06:15:20;101493.0;;;10.91;62.99
32452;BME280;45528;52.102;5.242;2022-12-05T06:16:56;101498.0;;;10.86;62.83
32452;BME280;45528;52.102;5.242;2022-12-05T06:18:33;101495.0;;;10.31;65.05
32452;BME280;45528;52.102;5.242;2022-12-05T06:21:47;101496.0;;;10.89;63.34
32452;BME280;45528;52.102;5.242;2022-12-05T06:23:25;101494.0;;;10.64;63.92
32452;BME280;45528;52.102;5.242;2022-12-05T06:25:01;101496.0;;;10.95;63.05
32452;BME280;45528;52.102;5.242;2022-12-05T06:28:14;101497.0;;;10.82;63.61
32452;BME280;45528;52.102;5.242;2022-12-05T06:29:52;101498.0;;;10.8;63.77
32452;BME280;45528;52.102;5.242;2022-12-05T06:31:30;101501.0;;;11.1;62.78
32452;BME280;45528;52.102;5.242;2022-12-05T06:33:07;101499.0;;;10.95;63.28
32452;BME280;45528;52.102;5.242;2022-12-05T06:36:21;101503.0;;;11.11;62.77
32452;BME280;45528;52.102;5.242;2022-12-05T06:37:58;101500.0;;;10.85;63.17
32452;BME280;45528;52.102;5.242;2022-12-05T06:39:34;101505.0;;;11.25;62.35
32452;BME280;45528;52.102;5.242;2022-12-05T06:42:55;101503.0;;;11.26;62.29
32452;BME280;45528;52.102;5.242;2022-12-05T06:44:32;101500.0;;;11.25;62.07
32452;BME280;45528;52.102;5.242;2022-12-05T06:46:11;101502.0;;;11.23;62.45
32452;BME280;45528;52.102;5.242;2022-12-05T06:47:47;101503.0;;;11.08;62.49
32452;BME280;45528;52.102;5.242;2022-12-05T06:51:02;101509.0;;;11.33;62.17
32452;BME280;45528;52.102;5.242;2022-12-05T06:52:38;101511.0;;;11.39;62.21
32452;BME280;45528;52.102;5.242;2022-12-05T06:54:15;101511.0;;;11.43;62.02
32452;BME280;45528;52.102;5.242;2022-12-05T06:57:32;101510.0;;;11.44;61.76
32452;BME280;45528;52.102;5.242;2022-12-05T06:59:08;101512.0;;;11.47;61.7
32452;BME280;45528;52.102;5.242;2022-12-05T07:01:49;101515.0;;;10.94;63.22
32452;BME280;45528;52.102;5.242;2022-12-05T07:03:26;101516.0;;;11.19;62.68
32452;BME280;45528;52.102;5.242;2022-12-05T07:05:02;101515.0;;;11.21;62.75
32452;BME280;45528;52.102;5.242;2022-12-05T07:06:39;101519.0;;;11.28;62.66
32452;BME280;45528;52.102;5.242;2022-12-05T07:09:53;101524.0;;;11.2;62.98
32452;BME280;45528;52.102;5.242;2022-12-05T07:11:30;101521.0;;;11.21;62.71
32452;BME280;45528;52.102;5.242;2022-12-05T07:13:07;101523.0;;;11.32;62.6
32452;BME280;45528;52.102;5.242;2022-12-05T07:16:20;101517.0;;;11.33;62.3
32452;BME280;45528;52.102;5.242;2022-12-05T07:17:56;101520.0;;;11.2;62.96
32452;BME280;45528;52.102;5.242;2022-12-05T07:19:33;101525.0;;;11.25;62.4
32452;BME280;45528;52.102;5.242;2022-12-05T07:21:11;101522.0;;;11.33;62.45
32452;BME280;45528;52.102;5.242;2022-12-05T07:24:25;101525.0;;;11.33;62.43
32452;BME280;45528;52.102;5.242;2022-12-05T07:26:03;101533.0;;;11.37;62.54
32452;BME280;45528;52.102;5.242;2022-12-05T07:27:40;101534.0;;;11.35;62.55
32452;BME280;45528;52.102;5.242;2022-12-05T07:31:01;101533.0;;;11.36;62.45
32452;BME280;45528;52.102;5.242;2022-12-05T07:32:41;101536.0;;;11.43;62.2
32452;BME280;45528;52.102;5.242;2022-12-05T07:34:17;101544.0;;;11.09;63.2
32452;BME280;45528;52.102;5.242;2022-12-05T07:35:58;101539.0;;;11.47;62.06
32452;BME280;45528;52.102;5.242;2022-12-05T07:39:12;101544.0;;;11.45;62.32
32452;BME280;45528;52.102;5.242;2022-12-05T07:40:48;101542.0;;;11.17;63.31
32452;BME280;45528;52.102;5.242;2022-12-05T07:42:24;101544.0;;;11.33;62.67
32452;BME280;45528;52.102;5.242;2022-12-05T07:45:36;101546.0;;;11.59;62.03
32452;BME280;45528;52.102;5.242;2022-12-05T07:47:12;101543.0;;;11.45;62.22
32452;BME280;45528;52.102;5.242;2022-12-05T07:48:49;101551.0;;;11.55;61.99
32452;BME280;45528;52.102;5.242;2022-12-05T07:50:26;101545.0;;;11.4;62.56
32452;BME280;45528;52.102;5.242;2022-12-05T07:53:41;101550.0;;;11.58;62.17
32452;BME280;45528;52.102;5.242;2022-12-05T07:55:17;101549.0;;;11.52;61.89
32452;BME280;45528;52.102;5.242;2022-12-05T07:56:54;101549.0;;;11.3;62.99
32452;BME280;45528;52.102;5.242;2022-12-05T08:00:09;101555.0;;;11.37;62.9
32452;BME280;45528;52.102;5.242;2022-12-05T08:01:45;101552.0;;;11.29;62.6
32452;BME280;45528;52.102;5.242;2022-12-05T08:03:22;101563.0;;;11.58;62.26
32452;BME280;45528;52.102;5.242;2022-12-05T08:06:35;101561.0;;;11.43;62.64
32452;BME280;45528;52.102;5.242;2022-12-05T08:08:11;101561.0;;;11.63;61.85
32452;BME280;45528;52.102;5.242;2022-12-05T08:09:48;101563.0;;;11.67;61.95
32452;BME280;45528;52.102;5.242;2022-12-05T08:11:26;101562.0;;;11.18;63.22
32452;BME280;45528;52.102;5.242;2022-12-05T08:14:40;101562.0;;;11.62;62.09
32452;BME280;45528;52.102;5.242;2022-12-05T08:16:17;101563.0;;;11.46;62.87
32452;BME280;45528;52.102;5.242;2022-12-05T08:17:55;101564.0;;;11.69;61.78
32452;BME280;45528;52.102;5.242;2022-12-05T08:21:09;101561.0;;;11.59;62.11
32452;BME280;45528;52.102;5.242;2022-12-05T08:22:49;101565.0;;;11.54;62.33
32452;BME280;45528;52.102;5.242;2022-12-05T08:24:26;101570.0;;;11.7;61.85
32452;BME280;45528;52.102;5.242;2022-12-05T08:26:03;101572.0;;;11.61;62.27
32452;BME280;45528;52.102;5.242;2022-12-05T08:29:20;101573.0;;;11.64;62.17
32452;BME280;45528;52.102;5.242;2022-12-05T08:32:39;101576.0;;;11.51;62.53
32452;BME280;45528;52.102;5.242;2022-12-05T08:34:16;101577.0;;;11.66;62.05
32452;BME280;45528;52.102;5.242;2022-12-05T08:35:53;101580.0;;;11.65;62.24
32452;BME280;45528;52.102;5.242;2022-12-05T08:37:30;101575.0;;;11.72;61.74
32452;BME280;45528;52.102;5.242;2022-12-05T08:39:07;101580.0;;;11.62;62.05
32452;BME280;45528;52.102;5.242;2022-12-05T08:40:46;101580.0;;;11.79;61.45
32452;BME280;45528;52.102;5.242;2022-12-05T08:44:01;101581.0;;;11.78;61.2
32452;BME280;45528;52.102;5.242;2022-12-05T08:45:40;101583.0;;;11.89;61.32
32452;BME280;45528;52.102;5.242;2022-12-05T08:47:24;101586.0;;;11.72;61.59
32452;BME280;45528;52.102;5.242;2022-12-05T08:49:01;101587.0;;;11.8;61.51
32452;BME280;45528;52.102;5.242;2022-12-05T08:52:14;101587.0;;;11.7;61.82
32452;BME280;45528;52.102;5.242;2022-12-05T08:53:50;101586.0;;;11.87;61.36
32452;BME280;45528;52.102;5.242;2022-12-05T08:55:26;101592.0;;;11.76;61.5
32452;BME280;45528;52.102;5.242;2022-12-05T08:58:40;101593.0;;;11.75;61.52
32452;BME280;45528;52.102;5.242;2022-12-05T09:00:17;101592.0;;;11.89;61.23
32452;BME280;45528;52.102;5.242;2022-12-05T09:01:53;101597.0;;;11.51;62.58
32452;BME280;45528;52.102;5.242;2022-12-05T09:05:07;101598.0;;;11.81;61.75
32452;BME280;45528;52.102;5.242;2022-12-05T09:06:44;101605.0;;;12.04;61.04
32452;BME280;45528;52.102;5.242;2022-12-05T09:08:21;101606.0;;;11.94;61.21
32452;BME280;45528;52.102;5.242;2022-12-05T09:09:58;101603.0;;;11.89;61.31
32452;BME280;45528;52.102;5.242;2022-12-05T09:13:14;101606.0;;;11.96;61.41
32452;BME280;45528;52.102;5.242;2022-12-05T09:14:50;101605.0;;;12.02;61.16
32452;BME280;45528;52.102;5.242;2022-12-05T09:16:30;101603.0;;;12.01;61.23
32452;BME280;45528;52.102;5.242;2022-12-05T09:19:44;101603.0;;;12.05;61.12
32452;BME280;45528;52.102;5.242;2022-12-05T09:21:22;101607.0;;;12.01;61.22
32452;BME280;45528;52.102;5.242;2022-12-05T09:22:59;101609.0;;;12.14;60.98
32452;BME280;45528;52.102;5.242;2022-12-05T09:24:36;101608.0;;;12.1;61.14
32452;BME280;45528;52.102;5.242;2022-12-05T09:27:53;101609.0;;;12.17;61.08
32452;BME280;45528;52.102;5.242;2022-12-05T09:29:30;101610.0;;;12.14;61.0
32452;BME280;45528;52.102;5.242;2022-12-05T09:31:09;101612.0;;;12.06;61.32
32452;BME280;45528;52.102;5.242;2022-12-05T09:34:28;101616.0;;;11.95;61.41
32452;BME280;45528;52.102;5.242;2022-12-05T09:36:06;101616.0;;;11.88;61.35
32452;BME280;45528;52.102;5.242;2022-12-05T09:37:43;101612.0;;;12.09;61.23
32452;BME280;45528;52.102;5.242;2022-12-05T09:39:19;101614.0;;;11.95;61.49
32452;BME280;45528;52.102;5.242;2022-12-05T09:42:55;101618.0;;;12.12;61.05
32452;BME280;45528;52.102;5.242;2022-12-05T09:44:40;101621.0;;;12.17;60.82
32452;BME280;45528;52.102;5.242;2022-12-05T09:47:35;101623.0;;;12.18;61.05
32452;BME280;45528;52.102;5.242;2022-12-05T09:50:57;101623.0;;;12.19;60.99
32452;BME280;45528;52.102;5.242;2022-12-05T09:52:37;101624.0;;;12.28;60.7
32452;BME280;45528;52.102;5.242;2022-12-05T09:56:01;101627.0;;;12.26;60.68
32452;BME280;45528;52.102;5.242;2022-12-05T09:59:23;101626.0;;;12.1;61.16
32452;BME280;45528;52.102;5.242;2022-12-05T10:01:04;101624.0;;;12.22;60.75
32452;BME280;45528;52.102;5.242;2022-12-05T10:04:50;101624.0;;;11.76;61.74
32452;BME280;45528;52.102;5.242;2022-12-05T10:10:11;101628.0;;;12.19;60.78
32452;BME280;45528;52.102;5.242;2022-12-05T10:11:59;101626.0;;;12.29;60.49
32452;BME280;45528;52.102;5.242;2022-12-05T10:13:51;101627.0;;;12.13;60.97
32452;BME280;45528;52.102;5.242;2022-12-05T10:15:39;101630.0;;;12.16;60.79
32452;BME280;45528;52.102;5.242;2022-12-05T10:17:22;101626.0;;;11.96;61.41
32452;BME280;45528;52.102;5.242;2022-12-05T10:20:47;101626.0;;;12.11;61.2
32452;BME280;45528;52.102;5.242;2022-12-05T10:22:30;101627.0;;;12.21;60.82
32452;BME280;45528;52.102;5.242;2022-12-05T10:24:25;101631.0;;;12.24;60.78
32452;BME280;45528;52.102;5.242;2022-12-05T10:26:08;101630.0;;;12.33;60.51
32452;BME280;45528;52.102;5.242;2022-12-05T10:27:49;101633.0;;;12.19;61.04
32452;BME280;45528;52.102;5.242;2022-12-05T10:29:29;101630.0;;;12.33;60.51
32452;BME280;45528;52.102;5.242;2022-12-05T10:32:52;101627.0;;;12.37;60.41
32452;BME280;45528;52.102;5.242;2022-12-05T10:34:33;101624.0;;;12.31;60.52
32452;BME280;45528;52.102;5.242;2022-12-05T10:36:14;101623.0;;;12.3;60.82
32452;BME280;45528;52.102;5.242;2022-12-05T10:37:56;101624.0;;;12.38;60.62
32452;BME280;45528;52.102;5.242;2022-12-05T10:41:12;101627.0;;;12.18;61.14
32452;BME280;45528;52.102;5.242;2022-12-05T10:42:49;101623.0;;;12.11;61.57
32452;BME280;45528;52.102;5.242;2022-12-05T10:44:26;101621.0;;;12.22;61.16
32452;BME280;45528;52.102;5.242;2022-12-05T10:47:40;101621.0;;;12.05;61.78
32452;BME280;45528;52.102;5.242;2022-12-05T10:49:18;101614.0;;;12.2;61.41
32452;BME280;45528;52.102;5.242;2022-12-05T10:50:56;101610.0;;;12.4;60.72
32452;BME280;45528;52.102;5.242;2022-12-05T10:52:34;101611.0;;;12.51;60.2
32452;BME280;45528;52.102;5.242;2022-12-05T10:55:53;101615.0;;;12.41;60.8
32452;BME280;45528;52.102;5.242;2022-12-05T10:57:30;101610.0;;;12.48;60.57
32452;BME280;45528;52.102;5.242;2022-12-05T10:59:09;101607.0;;;12.34;60.9
32452;BME280;45528;52.102;5.242;2022-12-05T11:02:28;101611.0;;;12.27;61.34
32452;BME280;45528;52.102;5.242;2022-12-05T11:04:16;101613.0;;;12.42;61.09
32452;BME280;45528;52.102;5.242;2022-12-05T11:05:58;101611.0;;;12.34;61.18
32452;BME280;45528;52.102;5.242;2022-12-05T11:07:44;101611.0;;;11.98;61.88
32452;BME280;45528;52.102;5.242;2022-12-05T11:09:24;101605.0;;;12.12;61.87
32452;BME280;45528;52.102;5.242;2022-12-05T11:12:41;101606.0;;;12.36;61.16
32452;BME280;45528;52.102;5.242;2022-12-05T11:14:21;101610.0;;;12.36;61.33
32452;BME280;45528;52.102;5.242;2022-12-05T11:15:59;101607.0;;;12.17;61.85
32452;BME280;45528;52.102;5.242;2022-12-05T11:17:38;101608.0;;;12.35;61.44
32452;BME280;45528;52.102;5.242;2022-12-05T11:21:12;101611.0;;;12.17;61.83
32452;BME280;45528;52.102;5.242;2022-12-05T11:22:51;101615.0;;;11.9;62.97
32452;BME280;45528;52.102;5.242;2022-12-05T11:24:32;101609.0;;;11.87;63.36
32452;BME280;45528;52.102;5.242;2022-12-05T11:26:17;101609.0;;;11.65;63.63